createdAt,value
2022-10-01T00:01:21.626Z,96.00
2022-10-01T00:06:21.038Z,95.80
2022-10-01T00:08:50.844Z,95.40
2022-10-01T00:11:22.046Z,96.10
2022-10-01T00:13:52.529Z,95.70
2022-10-01T00:16:22.615Z,98.50
2022-10-01T00:18:53.465Z,96.80
2022-10-01T00:21:24.171Z,95.80
2022-10-01T00:23:55.432Z,95.60
2022-10-01T00:26:27.313Z,96.60
2022-10-01T00:28:58.209Z,95.90
2022-10-01T00:31:27.105Z,96.10
2022-10-01T00:33:56.221Z,97.50
2022-10-01T00:36:24.343Z,96.00
2022-10-01T00:41:21.285Z,95.40
2022-10-01T00:43:55.275Z,97.10
2022-10-01T00:46:27.817Z,95.70
2022-10-01T00:49:00.047Z,96.70
2022-10-01T00:51:31.196Z,95.60
2022-10-01T00:54:05.971Z,98.20
2022-10-01T00:59:04.528Z,96.50
2022-10-01T01:01:37.583Z,96.70
2022-10-01T01:06:46.166Z,97.40
2022-10-01T01:09:14.312Z,96.90
2022-10-01T01:11:50.802Z,96.50
2022-10-01T01:14:23.992Z,96.90
2022-10-01T01:16:59.775Z,96.00
2022-10-01T01:19:40.410Z,96.30
2022-10-01T01:22:10.397Z,96.80
2022-10-01T01:24:47.195Z,96.50
2022-10-01T01:27:26.757Z,96.40
2022-10-01T01:30:04.303Z,96.60
2022-10-01T01:32:38.676Z,96.00
2022-10-01T01:35:11.303Z,95.90
2022-10-01T01:37:45.335Z,94.70
2022-10-01T01:40:16.022Z,96.00
2022-10-01T01:42:46.221Z,95.50
2022-10-01T01:45:19.981Z,97.90
2022-10-01T01:47:48.610Z,95.70
2022-10-01T01:50:18.802Z,96.00
2022-10-01T01:52:47.129Z,98.00
2022-10-01T01:57:45.454Z,98.80
2022-10-01T02:00:15.708Z,97.70
2022-10-01T02:02:50.315Z,98.30
2022-10-01T02:05:22.609Z,99.90
2022-10-01T02:08:13.390Z,99.90
2022-10-01T02:10:56.028Z,99.90
2022-10-01T02:13:35.137Z,99.90
2022-10-01T02:16:12.447Z,99.90
2022-10-01T02:18:48.178Z,99.90
2022-10-01T02:21:21.605Z,99.90
2022-10-01T02:23:54.377Z,99.90
2022-10-01T02:26:23.706Z,99.90
2022-10-01T02:28:55.240Z,99.90
2022-10-01T02:31:25.100Z,99.90
2022-10-01T02:33:55.468Z,99.90
2022-10-01T02:36:26.579Z,99.90
2022-10-01T02:38:56.660Z,99.90
2022-10-01T02:41:29.874Z,99.90
2022-10-01T02:44:01.378Z,99.90
2022-10-01T02:46:36.341Z,99.90
2022-10-01T02:49:05.216Z,99.90
2022-10-01T02:51:40.497Z,99.90
2022-10-01T02:54:14.626Z,99.90
2022-10-01T03:01:59.204Z,99.90
2022-10-01T03:19:22.675Z,99.90
2022-10-01T03:36:43.200Z,99.90
2022-10-01T03:49:05.523Z,99.90
2022-10-01T03:54:07.400Z,99.90
2022-10-01T03:59:04.500Z,99.90
2022-10-01T04:04:02.176Z,99.90
2022-10-01T04:11:28.678Z,99.90
2022-10-01T04:13:57.906Z,99.90
2022-10-01T04:16:26.561Z,99.90
2022-10-01T04:28:51.032Z,99.90
2022-10-01T04:33:54.982Z,99.90
2022-10-01T04:38:56.638Z,99.90
2022-10-01T04:41:30.992Z,99.90
2022-10-01T04:44:01.231Z,99.90
2022-10-01T04:46:30.421Z,99.90
2022-10-01T05:01:22.128Z,99.90
2022-10-01T05:13:45.803Z,99.90
2022-10-01T05:16:13.979Z,99.90
2022-10-01T05:18:43.528Z,99.90
2022-10-01T05:21:11.638Z,99.90
2022-10-01T05:26:08.918Z,99.90
2022-10-01T05:28:37.367Z,99.90
2022-10-01T05:33:35.302Z,99.90
2022-10-01T05:36:06.874Z,99.90
2022-10-01T05:38:37.253Z,99.90
2022-10-01T05:46:04.099Z,99.90
2022-10-01T05:48:36.946Z,99.90
2022-10-01T05:51:08.399Z,99.90
2022-10-01T05:56:06.395Z,99.90
2022-10-01T06:03:32.531Z,99.90
2022-10-01T06:08:30.872Z,99.90
2022-10-01T06:11:02.464Z,99.90
2022-10-01T06:13:30.826Z,99.90
2022-10-01T06:25:54.356Z,99.90
2022-10-01T06:33:19.909Z,99.90
2022-10-01T06:35:49.355Z,99.90
2022-10-01T06:38:19.857Z,99.90
2022-10-01T06:40:54.555Z,99.90
2022-10-01T06:48:20.358Z,99.90
2022-10-01T06:50:50.610Z,99.90
2022-10-01T06:55:46.740Z,99.90
2022-10-01T06:58:18.081Z,99.90
2022-10-01T07:03:18.343Z,99.90
2022-10-01T07:05:46.898Z,99.90
2022-10-01T07:10:44.220Z,99.90
2022-10-01T07:13:13.795Z,99.90
2022-10-01T07:15:43.246Z,99.90
2022-10-01T07:18:11.964Z,99.90
2022-10-01T07:20:41.112Z,99.90
2022-10-01T07:23:12.185Z,99.90
2022-10-01T07:25:40.712Z,99.90
2022-10-01T07:28:16.095Z,99.90
2022-10-01T07:30:48.434Z,99.90
2022-10-01T07:33:19.346Z,99.90
2022-10-01T07:43:14.696Z,99.90
2022-10-01T07:48:14.921Z,99.90
2022-10-01T07:50:45.122Z,99.90
2022-10-01T08:03:08.267Z,99.90
2022-10-01T08:05:37.773Z,99.90
2022-10-01T08:08:07.442Z,99.90
2022-10-01T08:10:36.566Z,99.90
2022-10-01T08:13:08.820Z,99.90
2022-10-01T08:23:05.462Z,99.90
2022-10-01T08:25:33.926Z,99.90
2022-10-01T08:30:31.022Z,99.90
2022-10-01T08:33:01.605Z,99.90
2022-10-01T08:35:30.685Z,99.90
2022-10-01T08:38:04.359Z,99.90
2022-10-01T08:40:36.630Z,99.90
2022-10-01T08:43:07.148Z,99.90
2022-10-01T08:45:43.204Z,99.90
2022-10-01T08:48:19.322Z,99.90
2022-10-01T08:50:52.925Z,99.90
2022-10-01T08:53:30.639Z,99.90
2022-10-01T08:55:59.914Z,99.90
2022-10-01T08:58:37.927Z,99.90
2022-10-01T09:03:35.523Z,99.90
2022-10-01T09:06:15.166Z,99.90
2022-10-01T09:08:54.723Z,99.90
2022-10-01T09:11:38.984Z,99.90
2022-10-01T09:14:32.762Z,99.90
2022-10-01T09:17:09.387Z,99.90
2022-10-01T09:20:05.342Z,99.90
2022-10-01T09:22:39.798Z,99.90
2022-10-01T09:25:18.176Z,99.90
2022-10-01T09:27:47.228Z,99.90
2022-10-01T09:30:19.347Z,99.90
2022-10-01T09:32:52.984Z,99.90
2022-10-01T09:35:28.509Z,99.90
2022-10-01T09:38:00.610Z,99.90
2022-10-01T09:40:36.139Z,99.90
2022-10-01T09:43:08.078Z,99.90
2022-10-01T09:45:36.524Z,99.90
2022-10-01T09:48:15.052Z,99.90
2022-10-01T09:50:50.443Z,99.90
2022-10-01T09:53:23.942Z,99.90
2022-10-01T09:55:56.989Z,99.90
2022-10-01T09:58:27.837Z,99.90
2022-10-01T10:00:56.670Z,99.90
2022-10-01T10:03:27.119Z,99.90
2022-10-01T10:05:55.750Z,99.90
2022-10-01T10:08:29.898Z,99.90
2022-10-01T10:11:01.492Z,99.90
2022-10-01T10:13:35.243Z,99.90
2022-10-01T10:16:10.935Z,99.90
2022-10-01T10:18:41.101Z,99.90
2022-10-01T10:21:16.311Z,99.90
2022-10-01T10:23:49.811Z,99.90
2022-10-01T10:26:22.312Z,99.90
2022-10-01T10:28:50.587Z,99.90
2022-10-01T10:31:22.171Z,99.90
2022-10-01T10:33:54.179Z,99.90
2022-10-01T10:36:28.932Z,99.90
2022-10-01T10:38:58.342Z,99.90
2022-10-01T10:41:30.159Z,99.90
2022-10-01T10:44:03.634Z,99.90
2022-10-01T10:46:34.233Z,99.90
2022-10-01T10:49:07.149Z,99.90
2022-10-01T10:51:46.165Z,99.90
2022-10-01T10:54:23.045Z,99.90
2022-10-01T10:57:02.448Z,99.90
2022-10-01T10:59:32.921Z,99.90
2022-10-01T11:02:03.735Z,99.90
2022-10-01T11:04:41.226Z,99.90
2022-10-01T11:07:12.252Z,99.90
2022-10-01T11:09:57.612Z,99.90
2022-10-01T11:12:44.014Z,99.90
2022-10-01T11:15:27.467Z,99.90
2022-10-01T11:18:21.876Z,99.90
2022-10-01T11:21:00.295Z,99.90
2022-10-01T11:23:49.625Z,99.90
2022-10-01T11:26:26.674Z,99.90
2022-10-01T11:29:09.436Z,99.90
2022-10-01T11:31:42.813Z,99.90
2022-10-01T11:34:51.074Z,99.90
2022-10-01T11:37:35.899Z,99.90
2022-10-01T11:40:15.569Z,99.90
2022-10-01T11:42:46.897Z,99.90
2022-10-01T11:45:22.070Z,99.90
2022-10-01T11:47:53.991Z,99.90
2022-10-01T11:50:26.389Z,99.90
2022-10-01T11:53:00.425Z,99.90
2022-10-01T11:56:03.192Z,99.90
2022-10-01T11:58:54.494Z,99.90
2022-10-01T12:01:39.142Z,99.90
2022-10-01T12:04:18.446Z,99.90
2022-10-01T12:06:55.208Z,99.90
2022-10-01T12:09:29.593Z,99.90
2022-10-01T12:12:01.837Z,99.90
2022-10-01T12:14:36.977Z,99.90
2022-10-01T12:17:14.384Z,99.90
2022-10-01T12:19:46.457Z,99.90
2022-10-01T12:22:21.277Z,99.90
2022-10-01T12:24:51.941Z,99.90
2022-10-01T12:27:33.383Z,99.90
2022-10-01T12:30:06.277Z,99.90
2022-10-01T12:32:48.834Z,99.90
2022-10-01T12:35:29.798Z,99.90
2022-10-01T12:38:10.800Z,99.90
2022-10-01T12:40:46.383Z,99.90
2022-10-01T12:43:44.275Z,99.90
2022-10-01T12:46:22.152Z,99.90
2022-10-01T12:48:59.670Z,99.90
2022-10-01T12:51:41.942Z,99.90
2022-10-01T12:54:42.329Z,99.90
2022-10-01T12:57:24.680Z,99.90
2022-10-01T13:00:03.950Z,99.90
2022-10-01T13:03:00.033Z,99.90
2022-10-01T13:05:38.481Z,99.90
2022-10-01T13:08:25.089Z,99.90
2022-10-01T13:11:03.745Z,99.90
2022-10-01T13:13:34.226Z,99.90
2022-10-01T13:16:08.302Z,99.90
2022-10-01T13:18:47.894Z,99.90
2022-10-01T13:21:26.283Z,99.90
2022-10-01T13:23:59.515Z,99.90
2022-10-01T13:26:33.928Z,99.90
2022-10-01T13:29:16.133Z,99.90
2022-10-01T13:31:57.251Z,99.90
2022-10-01T13:34:36.663Z,99.90
2022-10-01T13:37:17.497Z,99.90
2022-10-01T13:39:46.684Z,99.90
2022-10-01T13:42:20.956Z,99.90
2022-10-01T13:44:54.858Z,99.90
2022-10-01T13:47:24.002Z,99.90
2022-10-01T13:49:58.426Z,99.90
2022-10-01T13:52:28.178Z,99.90
2022-10-01T13:54:57.972Z,99.90
2022-10-01T13:57:32.190Z,99.90
2022-10-01T14:00:02.566Z,99.90
2022-10-01T14:02:34.427Z,99.90
2022-10-01T14:05:29.640Z,99.90
2022-10-01T14:08:11.766Z,99.90
2022-10-01T14:10:59.813Z,99.90
2022-10-01T14:13:47.152Z,99.90
2022-10-01T14:16:16.388Z,99.90
2022-10-01T14:18:48.840Z,99.90
2022-10-01T14:21:33.988Z,99.90
2022-10-01T14:24:11.638Z,99.90
2022-10-01T14:26:48.753Z,99.90
2022-10-01T14:29:32.075Z,99.90
2022-10-01T14:32:06.282Z,99.90
2022-10-01T14:34:55.665Z,99.90
2022-10-01T14:37:24.081Z,99.90
2022-10-01T14:40:08.961Z,99.90
2022-10-01T14:45:16.257Z,99.90
2022-10-01T14:50:19.559Z,99.90
2022-10-01T14:52:52.603Z,99.90
2022-10-01T14:55:24.762Z,99.90
2022-10-01T14:57:56.082Z,99.90
2022-10-01T15:00:26.314Z,99.90
2022-10-01T15:03:03.340Z,99.90
2022-10-01T15:05:33.563Z,99.90
2022-10-01T15:08:04.848Z,99.90
2022-10-01T15:10:34.393Z,99.90
2022-10-01T15:13:02.999Z,99.90
2022-10-01T15:15:40.430Z,99.90
2022-10-01T15:18:09.358Z,99.90
2022-10-01T15:20:37.428Z,99.90
2022-10-01T15:23:07.116Z,99.90
2022-10-01T15:25:37.392Z,99.90
2022-10-01T15:28:15.562Z,99.90
2022-10-01T15:30:45.157Z,99.90
2022-10-01T15:33:26.689Z,99.90
2022-10-01T15:35:57.173Z,99.90
2022-10-01T15:38:26.083Z,99.90
2022-10-01T15:41:13.985Z,99.90
2022-10-01T15:46:29.330Z,99.90
2022-10-01T15:49:18.140Z,99.90
2022-10-01T15:52:11.220Z,99.90
2022-10-01T15:54:41.473Z,99.90
2022-10-01T15:57:16.785Z,99.90
2022-10-01T15:59:45.149Z,99.90
2022-10-01T16:02:21.938Z,99.90
2022-10-01T16:07:30.290Z,99.90
2022-10-01T16:10:00.197Z,99.90
2022-10-01T16:12:30.423Z,99.90
2022-10-01T16:14:59.759Z,99.90
2022-10-01T16:17:33.304Z,99.90
2022-10-01T16:20:23.294Z,99.90
2022-10-01T16:25:33.685Z,99.90
2022-10-01T16:28:05.361Z,99.90
2022-10-01T16:30:35.693Z,99.90
2022-10-01T16:33:06.146Z,99.90
2022-10-01T16:35:35.939Z,99.90
2022-10-01T16:38:08.205Z,99.90
2022-10-01T16:40:42.249Z,99.90
2022-10-01T16:43:19.601Z,99.90
2022-10-01T16:48:19.597Z,99.90
2022-10-01T16:50:48.359Z,99.90
2022-10-01T16:53:18.328Z,99.90
2022-10-01T16:55:47.311Z,99.90
2022-10-01T16:58:17.820Z,99.90
2022-10-01T17:03:17.379Z,99.90
2022-10-01T17:08:14.594Z,99.90
2022-10-01T17:10:45.319Z,99.90
2022-10-01T17:13:14.604Z,99.90
2022-10-01T17:15:44.745Z,99.90
2022-10-01T17:23:12.414Z,99.90
2022-10-01T17:25:42.081Z,99.90
2022-10-01T17:28:13.772Z,99.90
2022-10-01T17:30:44.510Z,99.90
2022-10-01T17:33:13.784Z,99.90
2022-10-01T17:35:42.881Z,99.90
2022-10-01T17:38:11.503Z,99.90
2022-10-01T17:40:41.282Z,99.90
2022-10-01T17:43:11.284Z,99.90
2022-10-01T17:45:39.432Z,99.90
2022-10-01T17:48:09.311Z,99.90
2022-10-01T17:53:12.378Z,99.90
2022-10-01T17:55:45.576Z,99.90
2022-10-01T18:00:42.593Z,99.90
2022-10-01T18:03:12.155Z,99.90
2022-10-01T18:20:52.162Z,99.90
2022-10-01T18:30:48.967Z,99.90
2022-10-01T18:33:17.378Z,99.90
2022-10-01T18:35:46.245Z,99.90
2022-10-01T18:38:21.685Z,99.90
2022-10-01T18:40:57.458Z,99.90
2022-10-01T18:43:26.894Z,99.90
2022-10-01T18:46:11.265Z,99.90
2022-10-01T18:49:00.795Z,99.90
2022-10-01T18:51:41.420Z,99.90
2022-10-01T18:54:31.934Z,99.90
2022-10-01T18:57:10.943Z,99.90
2022-10-01T19:00:02.408Z,99.90
2022-10-01T19:02:59.135Z,99.90
2022-10-01T19:05:50.898Z,99.90
2022-10-01T19:08:41.044Z,99.90
2022-10-01T19:11:18.870Z,99.90
2022-10-01T19:13:55.910Z,99.90
2022-10-01T19:16:38.146Z,99.90
2022-10-01T19:19:20.477Z,99.90
2022-10-01T19:21:55.442Z,99.90
2022-10-01T19:24:39.796Z,99.90
2022-10-01T19:27:23.209Z,99.90
2022-10-01T19:30:07.096Z,99.90
2022-10-01T19:32:40.691Z,99.90
2022-10-01T19:35:16.862Z,99.90
2022-10-01T19:37:50.204Z,99.90
2022-10-01T19:40:25.392Z,99.90
2022-10-01T19:43:02.044Z,99.90
2022-10-01T19:45:39.264Z,99.90
2022-10-01T19:48:15.221Z,99.90
2022-10-01T19:50:47.524Z,99.90
2022-10-01T19:53:22.493Z,99.90
2022-10-01T19:55:53.368Z,99.90
2022-10-01T19:58:24.168Z,99.90
2022-10-01T20:00:57.173Z,99.90
2022-10-01T20:03:37.213Z,99.90
2022-10-01T20:06:09.810Z,99.90
2022-10-01T20:08:44.146Z,99.90
2022-10-01T20:11:16.553Z,99.90
2022-10-01T20:14:37.832Z,99.90
2022-10-01T20:17:14.593Z,99.90
2022-10-01T20:19:50.460Z,99.90
2022-10-01T20:22:27.394Z,99.90
2022-10-01T20:25:01.698Z,99.90
2022-10-01T20:27:38.841Z,99.90
2022-10-01T20:30:12.047Z,99.90
2022-10-01T20:32:47.440Z,99.90
2022-10-01T20:35:26.963Z,99.90
2022-10-01T20:38:02.081Z,99.90
2022-10-01T20:40:34.292Z,99.90
2022-10-01T20:43:06.378Z,99.90
2022-10-01T20:45:36.641Z,99.90
2022-10-01T20:48:12.469Z,99.90
2022-10-01T20:50:44.859Z,99.90
2022-10-01T20:53:24.933Z,99.90
2022-10-01T20:55:57.912Z,99.90
2022-10-01T20:58:32.337Z,99.90
2022-10-01T21:01:08.223Z,99.90
2022-10-01T21:03:40.368Z,99.90
2022-10-01T21:06:14.642Z,99.90
2022-10-01T21:08:50.099Z,99.90
2022-10-01T21:11:26.631Z,99.90
2022-10-01T21:14:01.582Z,99.90
2022-10-01T21:16:54.795Z,99.90
2022-10-01T21:19:37.999Z,99.90
2022-10-01T21:22:21.068Z,99.90
2022-10-01T21:25:02.340Z,99.90
2022-10-01T21:27:51.258Z,99.90
2022-10-01T21:30:21.014Z,99.90
2022-10-01T21:33:24.706Z,99.90
2022-10-01T21:35:56.596Z,99.90
2022-10-01T21:38:30.585Z,99.90
2022-10-01T21:41:27.411Z,99.90
2022-10-01T21:44:11.243Z,99.90
2022-10-01T21:46:47.149Z,99.90
2022-10-01T21:49:26.414Z,99.90
2022-10-01T21:52:05.122Z,99.90
2022-10-01T21:54:58.385Z,99.90
2022-10-01T21:57:43.938Z,99.90
2022-10-01T22:00:18.254Z,99.90
2022-10-01T22:03:01.183Z,99.90
2022-10-01T22:05:37.429Z,99.90
2022-10-01T22:08:19.709Z,99.90
2022-10-01T22:10:51.294Z,99.90
2022-10-01T22:13:22.726Z,99.90
2022-10-01T22:15:54.373Z,99.90
2022-10-01T22:18:32.194Z,99.90
2022-10-01T22:21:06.343Z,99.90
2022-10-01T22:23:38.316Z,99.90
2022-10-01T22:26:13.094Z,99.90
2022-10-01T22:28:45.097Z,99.90
2022-10-01T22:31:17.867Z,99.90
2022-10-01T22:33:49.929Z,99.90
2022-10-01T22:36:26.227Z,99.90
2022-10-01T22:38:57.617Z,99.90
2022-10-01T22:41:32.916Z,99.90
2022-10-01T22:47:02.231Z,99.90
2022-10-01T22:49:44.727Z,99.90
2022-10-01T22:52:22.313Z,99.90
2022-10-01T22:55:03.453Z,99.90
2022-10-01T22:57:54.303Z,99.90
2022-10-01T23:00:22.351Z,99.90
2022-10-01T23:03:04.603Z,99.90
2022-10-01T23:05:44.873Z,99.90
2022-10-01T23:08:20.302Z,99.90
2022-10-01T23:11:01.583Z,99.90
2022-10-01T23:13:39.350Z,99.90
2022-10-01T23:16:15.606Z,99.90
2022-10-01T23:18:52.805Z,99.90
2022-10-01T23:21:32.634Z,99.90
2022-10-01T23:24:15.712Z,99.90
2022-10-01T23:26:55.388Z,99.90
2022-10-01T23:29:49.506Z,99.90
2022-10-01T23:32:30.027Z,99.90
2022-10-01T23:35:05.710Z,99.90
2022-10-01T23:37:51.199Z,99.90
2022-10-01T23:40:23.646Z,99.90
2022-10-01T23:42:59.871Z,99.90
2022-10-01T23:45:33.559Z,99.90
2022-10-01T23:48:07.870Z,99.90
2022-10-01T23:50:42.069Z,99.90
2022-10-01T23:53:15.111Z,99.90
2022-10-01T23:56:23.816Z,99.90
2022-10-01T23:58:58.313Z,99.90
